Time;durP1;ratioP1;P1;durP2;ratioP2;P2;SDS_P1;SDS_P2;PMS_P1;PMS_P2;Temp;Humidity;BMP_temperature;BMP_pressure;BME280_temperature;BME280_humidity;BME280_pressure;Samples;Min_cycle;Max_cycle;Signal;HPM_P1;HPM_P2
2022/08/08 00:01:15;;;;;;;;;;;;;;;27.85;60.97;101055.34;5014324;28;19921;-82
2022/08/08 00:03:54;;;;;;;;;;;;;;;27.86;61.35;101058.06;5018537;28;19913;-81
2022/08/08 00:06:52;;;;;;;;;;;;;;;27.87;61.40;101061.63;5018965;28;19981;-81
2022/08/08 00:09:21;;;;;;;;;;;;;;;27.85;61.51;101055.34;4985973;28;19935;-81
2022/08/08 00:11:48;;;;;;;;;;;;;;;27.74;61.12;101072.47;5041578;28;20007;-80
2022/08/08 00:14:46;;;;;;;;;;;;;;;27.81;61.46;101068.81;5009811;28;19918;-80
2022/08/08 00:17:12;;;;;;;;;;;;;;;27.82;61.46;101070.56;4985345;28;19924;-82
2022/08/08 00:19:42;;;;;;;;;;;;;;;27.86;61.03;101079.53;4988731;28;19913;-80
2022/08/08 00:22:34;;;;;;;;;;;;;;;27.86;61.16;101065.22;5010145;28;19972;-82
2022/08/08 00:25:01;;;;;;;;;;;;;;;27.88;60.84;101082.19;5003063;28;20012;-81
2022/08/08 00:27:26;;;;;;;;;;;;;;;27.84;61.05;101075.06;5012014;28;20292;-82
2022/08/08 00:29:56;;;;;;;;;;;;;;;27.86;60.73;101081.31;5025893;28;19914;-82
2022/08/08 00:32:21;;;;;;;;;;;;;;;27.84;60.27;101075.06;4996145;28;19913;-80
2022/08/08 00:35:12;;;;;;;;;;;;;;;27.85;60.93;101077.69;5033277;28;20330;-82
2022/08/08 00:37:57;;;;;;;;;;;;;;;27.82;60.72;101078.63;5032860;28;19917;-82
2022/08/08 00:40:22;;;;;;;;;;;;;;;27.86;60.73;101081.31;5015084;28;19923;-82
2022/08/08 00:43:06;;;;;;;;;;;;;;;27.89;60.20;101068.72;5019191;28;19914;-82
2022/08/08 00:45:34;;;;;;;;;;;;;;;27.85;60.32;101083.06;5033051;28;20405;-82
2022/08/08 00:48:18;;;;;;;;;;;;;;;27.85;60.51;101083.06;5032395;28;20360;-82
2022/08/08 00:51:00;;;;;;;;;;;;;;;27.84;60.76;101091.16;5032827;28;19960;-82
2022/08/08 00:53:49;;;;;;;;;;;;;;;27.82;60.70;101085.81;5010268;28;19925;-82
2022/08/08 00:56:21;;;;;;;;;;;;;;;27.85;60.76;101082.19;5014781;28;19998;-82
2022/08/08 00:59:05;;;;;;;;;;;;;;;27.76;60.30;101061.72;5032615;28;19916;-82
2022/08/08 01:01:37;;;;;;;;;;;;;;;27.87;60.73;101085.78;5029888;28;20467;-82
2022/08/08 01:04:02;;;;;;;;;;;;;;;27.83;59.98;101084.88;5031685;28;19924;-80
2022/08/08 01:06:27;;;;;;;;;;;;;;;27.83;60.44;101084.88;5013072;28;19913;-81
2022/08/08 01:08:56;;;;;;;;;;;;;;;27.82;60.71;101086.69;5020026;28;19975;-81
2022/08/08 01:11:31;;;;;;;;;;;;;;;27.89;60.42;101086.63;5030577;28;20007;-82
2022/08/08 01:13:57;;;;;;;;;;;;;;;27.88;60.28;101091.13;5031224;28;20593;-80
2022/08/08 01:16:34;;;;;;;;;;;;;;;27.89;60.53;101092.00;5014636;28;19995;-81
2022/08/08 01:19:18;;;;;;;;;;;;;;;27.89;60.63;101094.69;5013375;28;19917;-81
2022/08/08 01:22:02;;;;;;;;;;;;;;;27.89;60.19;101090.22;5031608;28;19921;-81
2022/08/08 01:24:33;;;;;;;;;;;;;;;27.79;60.36;101091.19;5032075;28;20410;-81
2022/08/08 01:26:58;;;;;;;;;;;;;;;27.84;59.91;101097.41;5032263;28;19920;-81
2022/08/08 01:29:42;;;;;;;;;;;;;;;27.84;59.74;101094.72;5030226;28;19917;-80
2022/08/08 01:32:08;;;;;;;;;;;;;;;27.80;60.06;101096.53;5025092;28;19940;-81
2022/08/08 01:35:02;;;;;;;;;;;;;;;27.77;59.75;101087.63;5031803;28;20382;-80
2022/08/08 01:37:28;;;;;;;;;;;;;;;27.81;59.62;101092.97;5008983;28;19968;-81
2022/08/08 01:40:12;;;;;;;;;;;;;;;27.85;59.63;101096.47;5031979;28;19964;-81
2022/08/08 01:42:44;;;;;;;;;;;;;;;27.84;59.61;101089.34;5029174;28;19940;-81
2022/08/08 01:45:16;;;;;;;;;;;;;;;27.85;59.81;101091.13;5031993;28;19913;-81
2022/08/08 01:47:57;;;;;;;;;;;;;;;27.84;59.51;101092.03;5031335;28;20044;-81
2022/08/08 01:50:32;;;;;;;;;;;;;;;27.82;59.40;101089.38;5031196;28;20338;-81
2022/08/08 01:52:57;;;;;;;;;;;;;;;27.85;59.12;101090.22;5029748;28;19913;-81
2022/08/08 01:55:23;;;;;;;;;;;;;;;27.82;59.27;101092.03;5026260;28;20365;-80
2022/08/08 01:57:49;;;;;;;;;;;;;;;27.82;59.31;101097.41;5031562;28;19913;-80
2022/08/08 02:00:30;;;;;;;;;;;;;;;27.78;58.99;101097.47;5031724;28;19917;-81
2022/08/08 02:03:03;;;;;;;;;;;;;;;27.78;58.75;101101.03;5013547;28;20496;-81
2022/08/08 02:05:49;;;;;;;;;;;;;;;27.69;58.89;101092.22;5012872;28;19924;-81
2022/08/08 02:08:20;;;;;;;;;;;;;;;27.71;58.47;101101.16;5013632;28;19913;-81
2022/08/08 02:11:05;;;;;;;;;;;;;;;27.59;58.82;101102.16;5014242;28;19913;-82
2022/08/08 02:13:33;;;;;;;;;;;;;;;27.72;58.37;101094.88;5029837;28;19921;-82
2022/08/08 02:16:04;;;;;;;;;;;;;;;27.72;58.91;101093.06;5030868;28;20039;-82
2022/08/08 02:18:41;;;;;;;;;;;;;;;27.75;58.92;101093.03;5020861;28;19921;-81
2022/08/08 02:23:59;;;;;;;;;;;;;;;27.71;58.24;101090.41;5019197;28;20016;-83
2022/08/08 02:26:43;;;;;;;;;;;;;;;27.75;58.37;101093.03;5016632;28;20015;-82
2022/08/08 02:29:24;;;;;;;;;;;;;;;27.63;58.41;101089.63;5029414;28;20306;-82
2022/08/08 02:32:09;;;;;;;;;;;;;;;27.63;58.46;101084.25;5025445;28;19913;-81
2022/08/08 02:34:55;;;;;;;;;;;;;;;27.74;58.43;101082.31;5033099;28;19925;-82
2022/08/08 02:37:39;;;;;;;;;;;;;;;27.70;58.67;101076.09;4982216;28;19924;-82
2022/08/08 02:40:14;;;;;;;;;;;;;;;27.71;58.82;101079.69;5002469;28;19971;-81
2022/08/08 02:42:59;;;;;;;;;;;;;;;27.72;58.73;101082.31;5012641;28;19967;-81
2022/08/08 02:45:28;;;;;;;;;;;;;;;27.77;59.13;101084.94;5025118;28;19917;-82
2022/08/08 02:48:01;;;;;;;;;;;;;;;27.77;58.96;101088.53;5020791;28;20078;-82
2022/08/08 02:50:32;;;;;;;;;;;;;;;27.74;59.20;101082.31;5017383;28;20418;-82
2022/08/08 02:53:17;;;;;;;;;;;;;;;27.81;59.62;101084.00;5033082;28;19913;-81
2022/08/08 02:55:48;;;;;;;;;;;;;;;27.78;59.34;101087.63;5034697;28;19917;-81
2022/08/08 02:58:14;;;;;;;;;;;;;;;27.80;59.34;101088.50;5034522;28;20008;-81
2022/08/08 03:00:39;;;;;;;;;;;;;;;27.78;59.30;101089.44;5033316;28;20368;-81
2022/08/08 03:03:23;;;;;;;;;;;;;;;27.76;59.34;101091.25;5031403;28;19917;-81
2022/08/08 03:06:04;;;;;;;;;;;;;;;27.78;59.32;101094.78;5024712;28;19924;-82
2022/08/08 03:08:32;;;;;;;;;;;;;;;27.81;59.10;101097.44;5034202;28;19945;-81
2022/08/08 03:11:16;;;;;;;;;;;;;;;27.69;59.01;101093.13;5015837;28;19913;-80
2022/08/08 03:13:42;;;;;;;;;;;;;;;27.72;59.24;101093.06;5033924;28;19917;-81
2022/08/08 03:16:14;;;;;;;;;;;;;;;27.69;59.43;101098.47;5032501;28;19919;-81
2022/08/08 03:18:45;;;;;;;;;;;;;;;27.70;59.15;101102.91;5015491;28;19917;-81
2022/08/08 03:21:10;;;;;;;;;;;;;;;27.74;59.02;101104.66;5003475;28;19917;-82
2022/08/08 03:23:36;;;;;;;;;;;;;;;27.66;59.40;101111.91;5034126;28;19913;-82
2022/08/08 03:26:01;;;;;;;;;;;;;;;27.72;59.26;101109.16;5033622;28;19966;-82
2022/08/08 03:28:30;;;;;;;;;;;;;;;27.67;59.38;101107.47;5028935;28;19913;-82
2022/08/08 03:30:56;;;;;;;;;;;;;;;27.54;59.28;101117.44;5033750;28;19920;-82
2022/08/08 03:33:21;;;;;;;;;;;;;;;27.44;59.66;101107.69;5033749;28;19913;-82
2022/08/08 03:35:47;;;;;;;;;;;;;;;27.52;59.13;101114.75;5011428;28;19973;-81
2022/08/08 03:38:13;;;;;;;;;;;;;;;27.60;59.11;101107.53;5016184;28;19914;-81
2022/08/08 03:40:38;;;;;;;;;;;;;;;27.61;59.14;101113.78;5016036;28;19970;-81
2022/08/08 03:43:08;;;;;;;;;;;;;;;27.49;59.27;101112.09;5033398;28;20386;-82
2022/08/08 03:45:33;;;;;;;;;;;;;;;27.44;59.60;101116.63;5033605;28;19936;-82
2022/08/08 03:47:59;;;;;;;;;;;;;;;27.52;59.25;101113.88;5020384;28;20395;-82
2022/08/08 03:50:25;;;;;;;;;;;;;;;27.49;59.56;101125.50;5018733;28;19914;-82
2022/08/08 03:52:51;;;;;;;;;;;;;;;27.36;59.73;101114.00;5022755;28;20099;-82
2022/08/08 03:55:17;;;;;;;;;;;;;;;27.41;59.62;101130.97;5018286;28;20374;-82
2022/08/08 03:57:44;;;;;;;;;;;;;;;27.41;59.81;101130.06;5021762;28;20383;-81
2022/08/08 04:00:11;;;;;;;;;;;;;;;27.47;59.79;101135.38;5001471;28;19940;-81
2022/08/08 04:02:36;;;;;;;;;;;;;;;27.52;59.47;101136.22;5019707;28;19913;-82
2022/08/08 04:05:03;;;;;;;;;;;;;;;27.45;59.87;101144.34;5003028;28;19920;-82
2022/08/08 04:07:33;;;;;;;;;;;;;;;27.45;59.63;101142.53;5000371;28;19913;-81
2022/08/08 04:09:59;;;;;;;;;;;;;;;27.48;59.55;101149.69;5011692;28;20019;-80
2022/08/08 04:12:24;;;;;;;;;;;;;;;27.50;59.49;101148.75;5000214;28;20395;-82
2022/08/08 04:14:50;;;;;;;;;;;;;;;27.51;59.49;101153.22;5017359;28;19921;-79
2022/08/08 04:17:15;;;;;;;;;;;;;;;27.53;59.31;101151.41;5015278;28;19914;-80
2022/08/08 04:19:40;;;;;;;;;;;;;;;27.59;59.29;101161.19;4996358;28;20363;-81
2022/08/08 04:22:06;;;;;;;;;;;;;;;27.53;59.55;101159.44;5009388;28;19924;-82
2022/08/08 04:24:31;;;;;;;;;;;;;;;27.57;59.45;101155.84;5012679;28;19913;-81
2022/08/08 04:26:58;;;;;;;;;;;;;;;27.55;59.53;101163.00;5013984;28;20331;-82
2022/08/08 04:29:23;;;;;;;;;;;;;;;27.57;59.40;101165.69;5013362;28;19956;-81
2022/08/08 04:31:48;;;;;;;;;;;;;;;27.57;59.81;101168.38;5013807;28;19936;-82
2022/08/08 04:34:14;;;;;;;;;;;;;;;27.61;59.62;101165.63;5012645;28;19933;-81
2022/08/08 04:36:39;;;;;;;;;;;;;;;27.57;59.90;101169.25;4985779;28;19913;-82
2022/08/08 04:39:05;;;;;;;;;;;;;;;27.53;59.69;101167.50;5022335;28;19913;-80
2022/08/08 04:41:30;;;;;;;;;;;;;;;27.58;59.71;101179.09;4990639;28;20320;-81
2022/08/08 04:43:55;;;;;;;;;;;;;;;27.57;59.62;101181.78;5002574;28;20006;-81
2022/08/08 04:46:21;;;;;;;;;;;;;;;27.59;59.47;101177.28;5024758;28;19921;-80
2022/08/08 04:48:46;;;;;;;;;;;;;;;27.52;59.61;101179.16;5010048;28;19920;-81
2022/08/08 04:51:12;;;;;;;;;;;;;;;27.56;59.71;101188.06;5026925;28;20474;-81
2022/08/08 04:53:37;;;;;;;;;;;;;;;27.54;59.46;101184.50;4970123;28;19936;-81
2022/08/08 04:56:03;;;;;;;;;;;;;;;27.51;59.57;101189.88;5014786;28;19913;-81
2022/08/08 04:58:28;;;;;;;;;;;;;;;27.54;59.56;101190.75;4999391;28;19936;-80
2022/08/08 05:00:53;;;;;;;;;;;;;;;27.54;59.44;101190.75;5017394;28;19963;-81
2022/08/08 05:03:19;;;;;;;;;;;;;;;27.35;59.63;101189.16;5015617;28;19936;-81
2022/08/08 05:05:44;;;;;;;;;;;;;;;27.27;59.89;101189.19;5017256;28;19955;-80
2022/08/08 05:08:12;;;;;;;;;;;;;;;27.32;59.82;101189.16;4987888;28;19920;-81
2022/08/08 05:10:37;;;;;;;;;;;;;;;27.39;59.47;101183.75;5008703;28;20407;-82
2022/08/08 05:13:03;;;;;;;;;;;;;;;27.37;59.37;101184.66;4998002;28;20404;-80
2022/08/08 05:15:28;;;;;;;;;;;;;;;27.27;59.81;101197.25;5004010;28;19913;-80
2022/08/08 05:17:54;;;;;;;;;;;;;;;27.35;59.32;101200.75;4994909;28;19976;-80
2022/08/08 05:20:19;;;;;;;;;;;;;;;27.44;59.38;101201.59;5007975;28;20383;-81
2022/08/08 05:22:45;;;;;;;;;;;;;;;27.33;59.61;101197.19;5014993;28;20397;-80
2022/08/08 05:25:10;;;;;;;;;;;;;;;27.19;59.66;101199.06;5012779;28;19921;-80
2022/08/08 05:27:36;;;;;;;;;;;;;;;27.36;59.56;101197.16;4997091;28;19957;-82
2022/08/08 05:30:02;;;;;;;;;;;;;;;27.24;59.72;101194.56;4993238;28;19945;-81
2022/08/08 05:32:30;;;;;;;;;;;;;;;27.15;60.24;101199.97;5003626;28;20310;-82
2022/08/08 05:35:09;;;;;;;;;;;;;;;27.21;59.92;101198.16;4990451;28;20279;-80
2022/08/08 05:37:38;;;;;;;;;;;;;;;27.22;60.17;101201.78;4995311;28;19918;-81
2022/08/08 05:40:04;;;;;;;;;;;;;;;27.17;60.00;101206.22;5005318;28;19965;-81
2022/08/08 05:42:40;;;;;;;;;;;;;;;27.13;60.04;101207.16;4976576;28;19921;-80
2022/08/08 05:45:06;;;;;;;;;;;;;;;27.19;59.91;101215.16;4999065;28;20311;-81
2022/08/08 05:47:32;;;;;;;;;;;;;;;27.29;59.81;101203.50;5000803;28;19921;-81
2022/08/08 05:49:57;;;;;;;;;;;;;;;27.15;60.09;101214.28;5030030;28;20585;-81
2022/08/08 05:52:23;;;;;;;;;;;;;;;27.12;59.77;101208.06;5014825;28;19913;-81
2022/08/08 05:54:49;;;;;;;;;;;;;;;27.23;59.44;101202.66;5017102;28;19920;-81
2022/08/08 05:57:15;;;;;;;;;;;;;;;27.26;59.54;101202.63;5029774;28;20015;-81
2022/08/08 05:59:41;;;;;;;;;;;;;;;27.28;59.33;101211.53;5018249;28;19913;-81
2022/08/08 06:03:09;;;;;;;;;;;;;;;27.26;59.45;101216.03;5018412;28;20004;-82
2022/08/08 06:05:02;;;;;;;;;;;;;;;27.31;59.26;101220.47;5018083;28;20402;-81
2022/08/08 06:07:28;;;;;;;;;;;;;;;27.19;59.60;101212.47;5029285;28;19914;-81
2022/08/08 06:09:53;;;;;;;;;;;;;;;27.27;59.09;101218.69;5017430;28;19963;-82
2022/08/08 06:12:19;;;;;;;;;;;;;;;27.21;58.25;101222.28;5017638;28;19913;-81
2022/08/08 06:14:44;;;;;;;;;;;;;;;27.14;58.08;101212.50;5017341;28;19917;-85
2022/08/08 06:17:10;;;;;;;;;;;;;;;27.01;58.42;101214.38;5014272;28;19920;-80
2022/08/08 06:19:35;;;;;;;;;;;;;;;27.15;58.35;101222.31;5005030;28;19913;-81
2022/08/08 06:22:01;;;;;;;;;;;;;;;27.07;58.29;101218.78;5035087;28;19940;-81
2022/08/08 06:24:26;;;;;;;;;;;;;;;27.13;58.56;101220.56;5034716;28;19920;-81
2022/08/08 06:27:02;;;;;;;;;;;;;;;27.19;59.04;101218.72;5035287;28;19913;-82
2022/08/08 06:29:29;;;;;;;;;;;;;;;27.14;58.68;101233.97;5017451;28;20378;-82
2022/08/08 06:31:57;;;;;;;;;;;;;;;27.18;58.91;101226.78;5000913;28;19917;-82
2022/08/08 06:34:23;;;;;;;;;;;;;;;27.12;58.33;101230.41;5017308;28;20402;-82
2022/08/08 06:36:49;;;;;;;;;;;;;;;27.06;58.76;101224.19;5017635;28;19913;-82
2022/08/08 06:39:14;;;;;;;;;;;;;;;27.09;58.54;101226.84;5033701;28;20362;-82
2022/08/08 06:41:40;;;;;;;;;;;;;;;27.03;58.72;101230.47;5015991;28;20008;-82
2022/08/08 06:44:06;;;;;;;;;;;;;;;27.11;58.67;101242.00;5011875;28;19967;-82
2022/08/08 06:46:31;;;;;;;;;;;;;;;27.15;58.29;101233.03;5029273;28;19922;-81
2022/08/08 06:48:57;;;;;;;;;;;;;;;27.13;58.24;101231.28;5015411;28;20000;-82
2022/08/08 06:51:22;;;;;;;;;;;;;;;27.14;57.98;101239.31;5029971;28;20322;-82
2022/08/08 06:53:48;;;;;;;;;;;;;;;27.15;58.11;101226.78;5015016;28;19917;-82
2022/08/08 06:56:14;;;;;;;;;;;;;;;27.24;57.82;101240.16;5028959;28;19985;-82
2022/08/08 06:58:39;;;;;;;;;;;;;;;27.21;58.07;101240.16;5001701;28;19922;-81
2022/08/08 07:01:06;;;;;;;;;;;;;;;27.19;57.67;101242.84;5015147;28;20295;-82
2022/08/08 07:03:46;;;;;;;;;;;;;;;27.13;57.99;101240.22;5028049;28;19913;-81
2022/08/08 07:06:12;;;;;;;;;;;;;;;27.17;57.80;101243.75;5013302;28;19913;-82
2022/08/08 07:08:38;;;;;;;;;;;;;;;27.25;57.90;101252.69;5029488;28;19913;-81
2022/08/08 07:11:04;;;;;;;;;;;;;;;27.21;57.78;101261.63;5014331;28;19920;-81
2022/08/08 07:13:37;;;;;;;;;;;;;;;27.19;57.72;101256.25;5013956;28;19964;-83
2022/08/08 07:16:03;;;;;;;;;;;;;;;27.21;57.40;101250.88;5012803;28;19914;-82
2022/08/08 07:18:29;;;;;;;;;;;;;;;27.23;57.71;101258.97;5001986;28;20021;-82
2022/08/08 07:20:56;;;;;;;;;;;;;;;27.20;57.82;101257.16;5016112;28;20382;-82
2022/08/08 07:23:35;;;;;;;;;;;;;;;27.20;57.64;101252.69;5023745;28;19967;-82
2022/08/08 07:26:02;;;;;;;;;;;;;;;27.23;57.49;101249.13;5012658;28;19913;-82
2022/08/08 07:28:27;;;;;;;;;;;;;;;27.26;57.03;101254.44;5013869;28;19936;-82
2022/08/08 07:30:53;;;;;;;;;;;;;;;27.25;57.01;101252.69;5012381;28;20497;-81
2022/08/08 07:33:21;;;;;;;;;;;;;;;27.24;57.15;101264.28;5009471;28;19914;-82
2022/08/08 07:35:47;;;;;;;;;;;;;;;27.26;57.50;101262.50;5008799;28;20363;-82
2022/08/08 07:38:13;;;;;;;;;;;;;;;27.25;57.18;101265.22;5027158;28;19921;-81
2022/08/08 07:40:39;;;;;;;;;;;;;;;27.29;56.89;101269.66;4994031;28;19964;-82
2022/08/08 07:43:04;;;;;;;;;;;;;;;27.26;56.76;101272.34;5002175;28;20410;-82
2022/08/08 07:45:30;;;;;;;;;;;;;;;27.32;57.17;101280.34;5012047;28;19921;-82
2022/08/08 07:47:57;;;;;;;;;;;;;;;27.35;56.59;101274.97;5031084;28;19944;-82
2022/08/08 07:50:25;;;;;;;;;;;;;;;27.31;56.97;101276.78;5010654;28;20413;-82
2022/08/08 07:52:52;;;;;;;;;;;;;;;27.40;57.21;101275.81;5028281;28;19913;-83
2022/08/08 07:55:25;;;;;;;;;;;;;;;27.35;57.10;101281.22;5033087;28;19920;-83
2022/08/08 07:57:53;;;;;;;;;;;;;;;27.36;56.60;101285.66;5010297;28;19913;-81
2022/08/08 08:00:19;;;;;;;;;;;;;;;27.38;57.04;101288.34;5032873;28;20299;-81
2022/08/08 08:02:55;;;;;;;;;;;;;;;27.39;57.05;101282.97;5032810;28;19917;-81
2022/08/08 08:05:23;;;;;;;;;;;;;;;27.38;56.62;101280.31;5015228;28;19950;-82
2022/08/08 08:07:49;;;;;;;;;;;;;;;27.37;56.24;101282.09;5028727;28;19913;-82
2022/08/08 08:10:16;;;;;;;;;;;;;;;27.39;56.50;101279.41;5014781;28;19932;-82
2022/08/08 08:12:45;;;;;;;;;;;;;;;27.38;56.68;101278.50;5015626;28;20414;-82
2022/08/08 08:15:11;;;;;;;;;;;;;;;27.49;56.79;101281.09;5013564;28;19913;-81
2022/08/08 08:17:38;;;;;;;;;;;;;;;27.36;56.88;101266.00;5009978;28;20020;-81
2022/08/08 08:20:04;;;;;;;;;;;;;;;27.41;56.24;101265.09;5006630;28;20386;-81
2022/08/08 08:22:29;;;;;;;;;;;;;;;27.42;56.30;101268.66;5012629;28;19967;-81
2022/08/08 08:24:55;;;;;;;;;;;;;;;27.46;56.43;101273.09;5031292;28;19913;-81
2022/08/08 08:27:20;;;;;;;;;;;;;;;27.45;56.64;101257.88;5020276;28;20365;-81
2022/08/08 08:29:46;;;;;;;;;;;;;;;27.46;55.55;101272.22;5031894;28;19913;-81
2022/08/08 08:32:12;;;;;;;;;;;;;;;27.50;55.61;101273.97;5014629;28;19963;-81
2022/08/08 08:34:37;;;;;;;;;;;;;;;27.47;55.44;101264.13;5003885;28;19968;-81
2022/08/08 08:37:15;;;;;;;;;;;;;;;27.53;54.78;101266.75;5055873;28;19921;-81
2022/08/08 08:39:41;;;;;;;;;;;;;;;27.48;54.28;101255.19;5043838;28;19959;-81
2022/08/08 08:42:07;;;;;;;;;;;;;;;27.47;54.08;101268.59;5046482;28;19917;-81
2022/08/08 08:44:32;;;;;;;;;;;;;;;27.50;54.28;101265.91;5028038;28;19975;-81
2022/08/08 08:46:58;;;;;;;;;;;;;;;27.47;54.22;101263.25;5031034;28;19917;-82
2022/08/08 08:49:23;;;;;;;;;;;;;;;27.49;53.82;101266.81;5044075;28;19967;-81
2022/08/08 08:51:49;;;;;;;;;;;;;;;27.51;53.86;101270.38;5062111;28;19917;-82
2022/08/08 08:54:14;;;;;;;;;;;;;;;27.53;54.11;101272.13;5054773;28;20016;-82
2022/08/08 08:56:41;;;;;;;;;;;;;;;27.51;54.28;101267.69;5041990;28;19966;-82
2022/08/08 08:59:06;;;;;;;;;;;;;;;27.50;53.34;101266.81;5030718;28;20007;-81
2022/08/08 09:01:33;;;;;;;;;;;;;;;27.49;53.07;101267.69;5030444;28;20403;-81
2022/08/08 09:04:00;;;;;;;;;;;;;;;27.49;54.05;101267.69;5045733;28;19932;-81
2022/08/08 09:06:30;;;;;;;;;;;;;;;27.52;53.70;101267.69;5061221;28;19913;-81
2022/08/08 09:09:05;;;;;;;;;;;;;;;27.56;54.33;101268.56;5046658;28;19924;-81
2022/08/08 09:11:33;;;;;;;;;;;;;;;27.59;53.92;101264.03;5032808;28;19917;-81
2022/08/08 09:14:03;;;;;;;;;;;;;;;27.57;53.73;101262.28;5058237;28;19921;-80
2022/08/08 09:16:29;;;;;;;;;;;;;;;27.55;54.35;101261.38;5040684;28;20066;-81
2022/08/08 09:18:55;;;;;;;;;;;;;;;27.61;54.45;101264.91;5040238;28;20003;-81
2022/08/08 09:21:21;;;;;;;;;;;;;;;27.66;53.57;101261.28;5046814;28;20558;-80
2022/08/08 09:23:47;;;;;;;;;;;;;;;27.64;54.68;101257.72;5052748;28;19928;-81
2022/08/08 09:26:18;;;;;;;;;;;;;;;27.56;53.96;101253.34;5047782;28;19925;-82
2022/08/08 09:28:44;;;;;;;;;;;;;;;27.64;53.39;101258.63;5052519;28;20013;-82
2022/08/08 09:31:12;;;;;;;;;;;;;;;27.57;53.57;101265.84;5062562;28;20008;-83
2022/08/08 09:33:38;;;;;;;;;;;;;;;27.67;54.32;101261.28;5065862;28;19916;-83
2022/08/08 09:36:04;;;;;;;;;;;;;;;27.74;55.05;101270.16;5055525;28;19949;-83
2022/08/08 09:38:35;;;;;;;;;;;;;;;27.74;55.01;101265.69;5037852;28;19921;-82
2022/08/08 09:41:03;;;;;;;;;;;;;;;27.71;54.70;101248.75;5026427;28;19917;-81
2022/08/08 09:43:35;;;;;;;;;;;;;;;27.63;54.64;101275.63;5060068;28;19917;-83
2022/08/08 09:46:01;;;;;;;;;;;;;;;27.67;53.83;101263.09;5032996;28;20398;-84
2022/08/08 09:48:31;;;;;;;;;;;;;;;27.74;54.17;101264.81;5030261;28;19917;-81
2022/08/08 09:50:57;;;;;;;;;;;;;;;27.76;54.14;101266.56;5028171;28;19921;-83
2022/08/08 09:53:25;;;;;;;;;;;;;;;27.70;54.55;101255.00;5028283;28;19917;-82
2022/08/08 09:55:51;;;;;;;;;;;;;;;27.77;54.12;101262.06;5031594;28;19961;-82
2022/08/08 09:58:17;;;;;;;;;;;;;;;27.77;54.48;101263.00;5025560;28;20346;-82
2022/08/08 10:00:43;;;;;;;;;;;;;;;27.76;53.91;101265.69;5015959;28;20016;-81
2022/08/08 10:03:09;;;;;;;;;;;;;;;27.77;54.16;101263.00;5023048;28;19928;-81
2022/08/08 10:05:37;;;;;;;;;;;;;;;27.71;53.91;101257.69;5039684;28;20594;-81
2022/08/08 10:08:03;;;;;;;;;;;;;;;27.72;53.96;101255.88;5031957;28;20318;-81
2022/08/08 10:10:31;;;;;;;;;;;;;;;27.69;53.02;101259.47;5029946;28;19929;-82
2022/08/08 10:12:57;;;;;;;;;;;;;;;27.70;54.08;101260.38;5022226;28;19929;-83
2022/08/08 10:15:23;;;;;;;;;;;;;;;27.70;53.28;101255.00;5040604;28;19996;-82
2022/08/08 10:17:49;;;;;;;;;;;;;;;27.70;53.55;101252.31;5026809;28;19921;-83
2022/08/08 10:20:15;;;;;;;;;;;;;;;27.71;53.40;101264.84;5023228;28;19917;-82
2022/08/08 10:22:52;;;;;;;;;;;;;;;27.71;52.79;101257.69;5020478;28;19925;-82
2022/08/08 10:25:19;;;;;;;;;;;;;;;27.73;52.88;101249.59;5049670;28;19920;-83
2022/08/08 10:27:45;;;;;;;;;;;;;;;27.73;52.96;101245.13;5029553;28;19933;-82
2022/08/08 10:30:10;;;;;;;;;;;;;;;27.79;53.50;101252.22;5046097;28;19984;-82
2022/08/08 10:32:39;;;;;;;;;;;;;;;27.92;53.41;101255.69;5032431;28;19921;-82
2022/08/08 10:35:07;;;;;;;;;;;;;;;27.84;53.52;101245.03;5032496;28;20382;-81
2022/08/08 10:37:34;;;;;;;;;;;;;;;27.83;54.01;101243.22;5016870;28;19921;-81
2022/08/08 10:40:00;;;;;;;;;;;;;;;27.85;53.47;101246.78;5046341;28;19932;-81
2022/08/08 10:42:33;;;;;;;;;;;;;;;27.96;53.85;101254.78;5030398;28;20427;-82
2022/08/08 10:44:59;;;;;;;;;;;;;;;27.91;53.92;101252.13;5042956;28;20002;-81
2022/08/08 10:47:25;;;;;;;;;;;;;;;27.96;53.73;101247.63;5034034;28;20011;-82
2022/08/08 10:49:51;;;;;;;;;;;;;;;27.86;53.51;101245.94;5049204;28;20066;-84
2022/08/08 10:52:29;;;;;;;;;;;;;;;27.86;53.37;101239.69;5050621;28;19967;-83
2022/08/08 10:54:56;;;;;;;;;;;;;;;27.77;52.94;101236.16;5049008;28;20779;-81
2022/08/08 10:57:22;;;;;;;;;;;;;;;27.83;53.81;101240.56;5051811;28;20364;-81
2022/08/08 11:00:05;;;;;;;;;;;;;;;27.85;53.22;101238.75;5041213;28;20000;-81
2022/08/08 11:02:31;;;;;;;;;;;;;;;27.88;52.40;101243.25;5015049;28;19960;-81
2022/08/08 11:04:57;;;;;;;;;;;;;;;27.85;52.49;101240.53;5051238;28;19972;-80
2022/08/08 11:07:30;;;;;;;;;;;;;;;27.88;52.81;101233.41;5058164;28;20015;-80
2022/08/08 11:09:59;;;;;;;;;;;;;;;27.79;52.18;101241.47;5051839;28;19972;-81
2022/08/08 11:12:25;;;;;;;;;;;;;;;27.86;52.33;101237.88;5046176;28;19917;-82
2022/08/08 11:14:51;;;;;;;;;;;;;;;27.88;52.28;101229.81;5051728;28;20003;-82
2022/08/08 11:17:18;;;;;;;;;;;;;;;27.85;52.79;101235.19;5036814;28;19920;-81
2022/08/08 11:19:43;;;;;;;;;;;;;;;27.90;53.21;101234.28;5034369;28;20035;-80
2022/08/08 11:22:13;;;;;;;;;;;;;;;27.89;52.21;101232.47;5049353;28;20019;-81
2022/08/08 11:24:38;;;;;;;;;;;;;;;27.92;52.75;101228.84;5051560;28;19928;-82
2022/08/08 11:27:04;;;;;;;;;;;;;;;27.92;51.90;101226.16;5043918;28;20326;-81
2022/08/08 11:29:29;;;;;;;;;;;;;;;27.90;51.86;101233.34;5022090;28;20067;-82
2022/08/08 11:31:55;;;;;;;;;;;;;;;27.86;52.29;101219.09;5016782;28;20510;-81
2022/08/08 11:34:20;;;;;;;;;;;;;;;27.87;52.21;101222.66;5021996;28;20745;-81
2022/08/08 11:36:45;;;;;;;;;;;;;;;27.93;53.31;101225.28;5036266;28;19921;-81
2022/08/08 11:39:11;;;;;;;;;;;;;;;27.97;53.15;101224.34;5040056;28;19921;-81
2022/08/08 11:41:37;;;;;;;;;;;;;;;27.94;52.20;101219.00;5044817;28;19928;-81
2022/08/08 11:44:04;;;;;;;;;;;;;;;27.99;53.03;101227.91;5046601;28;19931;-81
2022/08/08 11:46:33;;;;;;;;;;;;;;;27.94;52.80;101216.31;5050848;28;19916;-80
2022/08/08 11:49:00;;;;;;;;;;;;;;;27.96;53.03;101220.78;5033018;28;20019;-81
2022/08/08 11:51:25;;;;;;;;;;;;;;;27.97;52.82;101214.50;5058579;28;20525;-82
2022/08/08 11:53:51;;;;;;;;;;;;;;;27.98;53.70;101218.97;5052531;28;19921;-82
2022/08/08 11:56:22;;;;;;;;;;;;;;;28.05;53.26;101222.47;5052537;28;19992;-81
2022/08/08 11:58:48;;;;;;;;;;;;;;;28.04;52.19;101225.16;5049620;28;20491;-82
2022/08/08 12:01:14;;;;;;;;;;;;;;;28.05;53.54;101221.59;5058841;28;20396;-81
2022/08/08 12:03:48;;;;;;;;;;;;;;;28.02;53.15;101222.50;5055977;28;19928;-82
2022/08/08 12:06:15;;;;;;;;;;;;;;;28.02;52.92;101220.72;5052677;28;19936;-81
2022/08/08 12:08:40;;;;;;;;;;;;;;;28.03;53.70;101218.91;5045717;28;19924;-81
2022/08/08 12:11:10;;;;;;;;;;;;;;;28.10;53.39;101222.41;5042844;28;19917;-81
2022/08/08 12:13:35;;;;;;;;;;;;;;;28.02;53.06;101220.72;5048100;28;19921;-82
2022/08/08 12:16:11;;;;;;;;;;;;;;;27.85;52.45;101192.22;5026757;28;20375;-82
2022/08/08 12:18:47;;;;;;;;;;;;;;;28.11;52.95;101226.88;5045533;28;19959;-82
2022/08/08 12:21:22;;;;;;;;;;;;;;;28.09;53.05;101217.94;5059191;28;19925;-82
2022/08/08 12:23:50;;;;;;;;;;;;;;;28.07;52.79;101217.97;5002753;28;19917;-83
2022/08/08 12:26:18;;;;;;;;;;;;;;;28.11;52.90;101222.41;5004963;28;20352;-80
2022/08/08 12:28:56;;;;;;;;;;;;;;;28.06;52.99;101226.91;5051318;28;20454;-81
2022/08/08 12:31:33;;;;;;;;;;;;;;;28.08;53.08;101225.09;5055067;28;19920;-82
2022/08/08 12:34:00;;;;;;;;;;;;;;;28.14;52.56;101222.34;5040757;28;19920;-82
2022/08/08 12:36:25;;;;;;;;;;;;;;;28.12;52.64;101225.97;5032278;28;19928;-81
2022/08/08 12:38:54;;;;;;;;;;;;;;;28.11;52.64;101222.41;5042661;28;19921;-82
2022/08/08 12:41:25;;;;;;;;;;;;;;;28.16;52.79;101215.19;5018028;28;20428;-81
2022/08/08 12:43:50;;;;;;;;;;;;;;;28.20;53.75;101207.97;5036773;28;19927;-81
2022/08/08 12:46:16;;;;;;;;;;;;;;;28.12;52.89;101212.56;5040843;28;19921;-81
2022/08/08 12:49:11;;;;;;;;;;;;;;;28.12;52.92;101217.91;5051486;28;19927;-80